createdAt,value
2023-01-22T00:01:29.555Z,102589.97
2023-01-22T00:04:52.701Z,102592.53
2023-01-22T00:08:13.976Z,102588.13
2023-01-22T00:11:35.840Z,102583.75
2023-01-22T00:14:57.661Z,102589.00
2023-01-22T00:18:20.207Z,102591.59
2023-01-22T00:21:43.113Z,102584.75
2023-01-22T00:25:06.150Z,102586.41
2023-01-22T00:28:28.011Z,102590.00
2023-01-22T00:31:49.847Z,102596.06
2023-01-22T00:35:11.710Z,102596.16
2023-01-22T00:38:35.347Z,102600.53
2023-01-22T00:41:57.209Z,102583.97
2023-01-22T00:45:18.943Z,102592.69
2023-01-22T00:48:40.867Z,102598.81
2023-01-22T00:52:02.609Z,102598.88
2023-01-22T00:55:25.698Z,102596.25
2023-01-22T00:58:47.334Z,102595.31
2023-01-22T01:02:09.046Z,102594.53
2023-01-22T01:05:30.694Z,102592.84
2023-01-22T01:08:52.348Z,102593.69
2023-01-22T01:12:15.487Z,102594.50
2023-01-22T01:15:38.218Z,102597.09
2023-01-22T01:19:00.609Z,102595.34
2023-01-22T01:22:21.982Z,102589.19
2023-01-22T01:25:43.357Z,102594.66
2023-01-22T01:29:08.062Z,102596.31
2023-01-22T01:32:29.842Z,102586.63
2023-01-22T01:36:00.133Z,102598.94
2023-01-22T01:39:24.060Z,102598.03
2023-01-22T01:42:47.369Z,102599.78
2023-01-22T01:46:19.463Z,102597.97
2023-01-22T01:49:48.205Z,102603.25
2023-01-22T01:53:10.192Z,102604.13
2023-01-22T01:56:36.471Z,102610.28
2023-01-22T02:00:00.091Z,102614.66
2023-01-22T02:03:23.392Z,102623.47
2023-01-22T02:06:45.182Z,102625.25
2023-01-22T02:10:07.529Z,102624.44
2023-01-22T02:13:32.331Z,102630.56
2023-01-22T02:17:01.788Z,102622.75
2023-01-22T02:20:24.575Z,102621.88
2023-01-22T02:23:47.788Z,102635.00
2023-01-22T02:27:09.562Z,102632.44
2023-01-22T02:30:31.413Z,102637.63
2023-01-22T02:33:53.255Z,102639.34
2023-01-22T02:37:15.163Z,102638.47
2023-01-22T02:40:48.993Z,102646.38
2023-01-22T02:44:13.110Z,102638.47
2023-01-22T02:47:36.009Z,102642.06
2023-01-22T02:50:57.769Z,102642.06
2023-01-22T02:54:19.549Z,102644.75
2023-01-22T02:57:42.358Z,102641.31
2023-01-22T03:01:18.972Z,102641.44
2023-01-22T03:04:41.658Z,102645.81
2023-01-22T03:08:05.163Z,102641.44
2023-01-22T03:11:29.422Z,102644.13
2023-01-22T03:15:10.154Z,102638.94
2023-01-22T03:18:50.489Z,102647.78
2023-01-22T03:22:15.599Z,102640.78
2023-01-22T03:25:37.462Z,102641.66
2023-01-22T03:28:58.682Z,102639.00
2023-01-22T03:32:22.921Z,102639.00
2023-01-22T03:35:44.464Z,102637.25
2023-01-22T03:39:11.320Z,102646.88
2023-01-22T03:42:33.010Z,102650.34
2023-01-22T03:45:54.660Z,102652.09
2023-01-22T03:49:19.322Z,102653.81
2023-01-22T03:52:47.319Z,102654.66
2023-01-22T03:56:13.139Z,102652.03
2023-01-22T03:59:35.083Z,102649.38
2023-01-22T04:02:56.418Z,102658.13
2023-01-22T04:06:25.057Z,102661.59
2023-01-22T04:09:46.592Z,102661.53
2023-01-22T04:13:08.394Z,102664.16
2023-01-22T04:16:31.292Z,102664.97
2023-01-22T04:20:21.915Z,102665.81
2023-01-22T04:24:03.727Z,102660.56
2023-01-22T04:27:26.517Z,102671.00
2023-01-22T04:30:53.216Z,102671.91
2023-01-22T04:34:53.041Z,102670.16
2023-01-22T04:38:29.864Z,102672.78
2023-01-22T04:41:52.782Z,102680.63
2023-01-22T04:45:14.458Z,102669.28
2023-01-22T04:48:36.431Z,102680.63
2023-01-22T04:51:58.288Z,102676.25
2023-01-22T04:55:21.956Z,102677.94
2023-01-22T04:58:54.854Z,102682.47
2023-01-22T05:02:16.911Z,102691.16
2023-01-22T05:05:38.666Z,102699.03
2023-01-22T05:09:00.161Z,102696.34
2023-01-22T05:12:24.843Z,102696.34
2023-01-22T05:15:49.457Z,102698.97
2023-01-22T05:19:12.095Z,102703.34
2023-01-22T05:22:33.949Z,102714.69
2023-01-22T05:25:55.524Z,102717.25
2023-01-22T05:29:29.795Z,102724.25
2023-01-22T05:33:10.435Z,102726.00
2023-01-22T05:36:33.299Z,102736.50
2023-01-22T05:40:00.693Z,102732.16
2023-01-22T05:43:23.593Z,102733.94
2023-01-22T05:46:50.435Z,102726.94
2023-01-22T05:50:28.591Z,102733.94
2023-01-22T05:53:58.162Z,102732.19
2023-01-22T05:57:22.964Z,102740.94
2023-01-22T06:00:44.842Z,102743.56
2023-01-22T06:04:07.722Z,102755.81
2023-01-22T06:07:32.718Z,102751.41
2023-01-22T06:11:01.038Z,102760.19
2023-01-22T06:14:23.434Z,102757.56
2023-01-22T06:17:45.233Z,102760.19
2023-01-22T06:21:08.854Z,102761.06
2023-01-22T06:24:32.023Z,102768.91
2023-01-22T06:27:54.913Z,102771.59
2023-01-22T06:31:17.725Z,102768.06
2023-01-22T06:34:39.665Z,102783.72
2023-01-22T06:38:01.197Z,102782.81
2023-01-22T06:41:27.882Z,102776.66
2023-01-22T06:44:53.971Z,102788.97
2023-01-22T06:48:18.333Z,102796.88
2023-01-22T06:51:40.687Z,102795.13
2023-01-22T06:55:02.174Z,102794.25
2023-01-22T06:58:25.727Z,102790.72
2023-01-22T07:01:47.496Z,102794.31
2023-01-22T07:05:10.036Z,102798.66
2023-01-22T07:08:34.475Z,102797.78
2023-01-22T07:11:57.425Z,102794.25
2023-01-22T07:15:20.499Z,102795.09
2023-01-22T07:18:42.218Z,102801.19
2023-01-22T07:22:03.995Z,102796.84
2023-01-22T07:25:27.149Z,102801.25
2023-01-22T07:28:51.480Z,102802.16
2023-01-22T07:32:14.391Z,102803.88
2023-01-22T07:35:36.099Z,102811.72
2023-01-22T07:38:57.744Z,102813.56
2023-01-22T07:42:18.916Z,102821.41
2023-01-22T07:45:40.609Z,102824.03
2023-01-22T07:49:03.368Z,102831.09
2023-01-22T07:52:25.237Z,102831.13
2023-01-22T07:55:47.195Z,102841.72
2023-01-22T07:59:08.971Z,102840.78
2023-01-22T08:02:30.261Z,102844.28
2023-01-22T08:05:53.548Z,102842.56
2023-01-22T08:09:16.552Z,102842.56
2023-01-22T08:12:41.351Z,102845.97
2023-01-22T08:16:03.089Z,102851.22
2023-01-22T08:19:24.761Z,102855.53
2023-01-22T08:22:48.178Z,102856.44
2023-01-22T08:26:10.291Z,102864.28
2023-01-22T08:29:32.090Z,102866.06
2023-01-22T08:32:55.168Z,102873.97
2023-01-22T08:36:16.603Z,102880.06
2023-01-22T08:39:39.210Z,102873.91
2023-01-22T08:43:00.601Z,102887.06
2023-01-22T08:46:21.981Z,102878.28
2023-01-22T08:49:43.803Z,102890.53
2023-01-22T08:53:05.652Z,102894.91
2023-01-22T08:56:28.933Z,102892.28
2023-01-22T09:00:00.709Z,102897.59
2023-01-22T09:03:23.163Z,102899.38
2023-01-22T09:06:44.741Z,102908.13
2023-01-22T09:10:08.269Z,102908.94
2023-01-22T09:13:31.252Z,102906.34
2023-01-22T09:16:53.551Z,102916.84
2023-01-22T09:20:14.925Z,102909.78
2023-01-22T09:23:36.839Z,102922.06
2023-01-22T09:26:58.726Z,102930.78
2023-01-22T09:30:22.383Z,102920.25
2023-01-22T09:33:44.309Z,102929.94
2023-01-22T09:37:07.902Z,102928.09
2023-01-22T09:40:32.349Z,102931.63
2023-01-22T09:43:58.585Z,102933.38
2023-01-22T09:47:30.902Z,102936.94
2023-01-22T09:50:52.552Z,102937.72
2023-01-22T09:54:16.334Z,102939.47
2023-01-22T09:57:47.634Z,102940.31
2023-01-22T10:01:09.018Z,102951.69
2023-01-22T10:04:37.672Z,102944.63
2023-01-22T10:08:05.813Z,102937.56
2023-01-22T10:11:27.732Z,102942.81
2023-01-22T10:14:57.096Z,102935.75
2023-01-22T10:18:32.352Z,102942.88
2023-01-22T10:22:00.237Z,102942.84
2023-01-22T10:25:22.159Z,102950.72
2023-01-22T10:28:49.292Z,102949.84
2023-01-22T10:32:19.922Z,102947.25
2023-01-22T10:35:44.045Z,102953.34
2023-01-22T10:39:11.962Z,102942.94
2023-01-22T10:42:33.225Z,102939.47
2023-01-22T10:45:57.196Z,102939.41
2023-01-22T10:49:21.275Z,102932.31
2023-01-22T10:52:45.979Z,102932.28
2023-01-22T10:56:12.604Z,102931.34
2023-01-22T10:59:34.962Z,102934.00
2023-01-22T11:02:56.701Z,102933.13
2023-01-22T11:06:21.897Z,102922.59
2023-01-22T11:09:47.804Z,102934.00
2023-01-22T11:13:20.989Z,102927.81
2023-01-22T11:16:44.670Z,102924.22
2023-01-22T11:20:17.255Z,102935.69
2023-01-22T11:23:48.525Z,102946.16
2023-01-22T11:27:26.958Z,102934.72
2023-01-22T11:31:09.198Z,102943.59
2023-01-22T11:34:43.633Z,102939.16
2023-01-22T11:38:17.810Z,102940.00
2023-01-22T11:41:55.781Z,102938.22
2023-01-22T11:45:32.736Z,102947.84
2023-01-22T11:49:06.954Z,102939.03
2023-01-22T11:52:43.790Z,102940.94
2023-01-22T11:56:24.080Z,102941.00
2023-01-22T12:00:01.627Z,102954.06
2023-01-22T12:03:52.112Z,102943.53
2023-01-22T12:07:51.163Z,102935.59
2023-01-22T12:11:37.313Z,102947.00
2023-01-22T12:15:17.044Z,102944.25
2023-01-22T12:18:59.478Z,102937.38
2023-01-22T12:22:33.092Z,102935.63
2023-01-22T12:26:01.582Z,102933.97
2023-01-22T12:29:29.956Z,102937.47
2023-01-22T12:32:56.076Z,102937.47
2023-01-22T12:36:22.944Z,102930.38
2023-01-22T12:39:52.482Z,102926.06
2023-01-22T12:43:15.331Z,102923.38
2023-01-22T12:46:49.752Z,102920.69
2023-01-22T12:50:19.213Z,102928.56
2023-01-22T12:53:41.302Z,102937.31
2023-01-22T12:57:24.412Z,102949.66
2023-01-22T13:00:47.378Z,102954.00
2023-01-22T13:04:13.912Z,102949.59
2023-01-22T13:07:39.703Z,102944.44
2023-01-22T13:11:02.824Z,102946.19
2023-01-22T13:14:27.452Z,102953.19
2023-01-22T13:18:06.611Z,102960.19
2023-01-22T13:21:30.578Z,102954.91
2023-01-22T13:24:54.411Z,102950.47
2023-01-22T13:28:18.730Z,102955.75
2023-01-22T13:31:40.398Z,102954.00
2023-01-22T13:35:08.095Z,102960.13
2023-01-22T13:38:32.700Z,102963.59
2023-01-22T13:41:57.310Z,102969.81
2023-01-22T13:45:23.533Z,102954.84
2023-01-22T13:48:45.258Z,102966.22
2023-01-22T13:52:14.952Z,102962.75
2023-01-22T13:55:37.041Z,102954.91
2023-01-22T13:59:19.070Z,102956.69
2023-01-22T14:02:45.563Z,102960.22
2023-01-22T14:06:11.086Z,102961.06
2023-01-22T14:09:35.596Z,102967.13
2023-01-22T14:13:01.663Z,102981.22
2023-01-22T14:16:24.179Z,102975.97
2023-01-22T14:19:45.478Z,102980.34
2023-01-22T14:23:07.639Z,102982.91
2023-01-22T14:26:30.500Z,102985.53
2023-01-22T14:29:55.779Z,102982.91
2023-01-22T14:33:23.826Z,102979.38
2023-01-22T14:36:48.219Z,102990.75
2023-01-22T14:40:11.814Z,102989.78
2023-01-22T14:43:35.873Z,102982.75
2023-01-22T14:46:57.449Z,102990.63
2023-01-22T14:50:19.803Z,102994.16
2023-01-22T14:53:41.748Z,102998.47
2023-01-22T14:57:04.191Z,102998.47
2023-01-22T15:00:28.668Z,102992.31
2023-01-22T15:03:50.601Z,102998.47
2023-01-22T15:07:13.116Z,103002.00
2023-01-22T15:10:34.654Z,103002.00
2023-01-22T15:13:56.530Z,103001.13
2023-01-22T15:17:21.296Z,103009.00
2023-01-22T15:20:43.154Z,103008.19
2023-01-22T15:24:05.049Z,103009.00
2023-01-22T15:27:26.635Z,103009.00
2023-01-22T15:30:50.795Z,103008.16
2023-01-22T15:34:13.989Z,103015.16
2023-01-22T15:37:35.577Z,103029.19
2023-01-22T15:41:04.993Z,103024.81
2023-01-22T15:44:26.629Z,103030.09
2023-01-22T15:47:48.959Z,103031.88
2023-01-22T15:51:13.856Z,103027.44
2023-01-22T15:54:35.626Z,103030.09
2023-01-22T15:57:59.824Z,103031.81
2023-01-22T16:01:23.957Z,103039.72
2023-01-22T16:04:45.446Z,103040.63
2023-01-22T16:08:08.198Z,103047.69
2023-01-22T16:11:31.226Z,103052.09
2023-01-22T16:14:52.567Z,103045.09
2023-01-22T16:18:14.248Z,103052.94
2023-01-22T16:21:36.210Z,103051.16
2023-01-22T16:24:58.938Z,103049.41
2023-01-22T16:28:20.237Z,103046.88
2023-01-22T16:31:42.096Z,103053.88
2023-01-22T16:35:04.303Z,103060.91
2023-01-22T16:38:25.907Z,103064.44
2023-01-22T16:41:50.421Z,103070.59
2023-01-22T16:45:12.036Z,103076.72
2023-01-22T16:48:33.994Z,103076.69
2023-01-22T16:51:57.979Z,103075.81
2023-01-22T16:55:19.800Z,103078.44
2023-01-22T16:58:43.262Z,103085.63
2023-01-22T17:02:09.053Z,103089.19
2023-01-22T17:05:30.786Z,103087.56
2023-01-22T17:08:53.043Z,103093.69
2023-01-22T17:12:14.758Z,103091.88
2023-01-22T17:15:39.931Z,103100.66
2023-01-22T17:19:03.134Z,103104.94
2023-01-22T17:22:25.346Z,103100.56
2023-01-22T17:25:47.958Z,103111.94
2023-01-22T17:29:09.918Z,103117.16
2023-01-22T17:32:32.999Z,103118.94
2023-01-22T17:35:59.305Z,103118.94
2023-01-22T17:39:21.316Z,103125.97
2023-01-22T17:42:42.694Z,103125.06
2023-01-22T17:46:08.972Z,103125.00
2023-01-22T17:49:34.941Z,103118.78
2023-01-22T17:52:57.117Z,103138.06
2023-01-22T17:56:20.688Z,103139.81
2023-01-22T17:59:42.195Z,103124.91
2023-01-22T18:03:04.208Z,103127.53
2023-01-22T18:06:27.610Z,103129.34
2023-01-22T18:09:49.219Z,103134.59
2023-01-22T18:13:11.136Z,103128.50
2023-01-22T18:16:38.365Z,103147.81
2023-01-22T18:19:59.994Z,103147.81
2023-01-22T18:23:23.401Z,103153.97
2023-01-22T18:26:45.321Z,103151.34
2023-01-22T18:30:08.629Z,103157.56
2023-01-22T18:33:30.637Z,103155.81
2023-01-22T18:36:52.579Z,103154.94
2023-01-22T18:40:16.679Z,103154.09
2023-01-22T18:43:39.011Z,103158.50
2023-01-22T18:47:01.795Z,103165.50
2023-01-22T18:50:23.683Z,103167.25
2023-01-22T18:53:45.561Z,103173.41
2023-01-22T18:57:08.208Z,103176.91
2023-01-22T19:00:30.171Z,103170.81
2023-01-22T19:03:53.961Z,103174.34
2023-01-22T19:07:15.453Z,103184.09
2023-01-22T19:10:37.129Z,103182.53
2023-01-22T19:14:00.918Z,103178.97
2023-01-22T19:17:22.391Z,103189.59
2023-01-22T19:20:44.058Z,103193.94
2023-01-22T19:24:06.434Z,103192.19
2023-01-22T19:27:29.740Z,103200.91
2023-01-22T19:30:53.086Z,103193.03
2023-01-22T19:34:23.128Z,103205.38
2023-01-22T19:37:45.008Z,103194.94
2023-01-22T19:41:08.660Z,103205.38
2023-01-22T19:44:30.572Z,103211.50
2023-01-22T19:47:55.500Z,103203.72
2023-01-22T19:51:18.942Z,103203.69
2023-01-22T19:54:47.200Z,103204.53
2023-01-22T19:58:08.823Z,103205.41
2023-01-22T20:01:31.110Z,103200.16
2023-01-22T20:04:54.413Z,103210.63
2023-01-22T20:08:16.810Z,103209.75
2023-01-22T20:11:38.802Z,103215.09
2023-01-22T20:15:00.621Z,103216.88
2023-01-22T20:18:22.766Z,103224.03
2023-01-22T20:21:45.621Z,103224.91
2023-01-22T20:25:09.149Z,103217.94
2023-01-22T20:28:30.692Z,103218.81
2023-01-22T20:31:53.321Z,103220.56
2023-01-22T20:35:16.230Z,103225.75
2023-01-22T20:38:39.491Z,103219.56
2023-01-22T20:42:01.145Z,103218.63
2023-01-22T20:45:23.084Z,103219.50
2023-01-22T20:48:45.460Z,103220.38
2023-01-22T20:52:07.250Z,103229.09
2023-01-22T20:55:30.172Z,103225.63
2023-01-22T20:58:57.162Z,103223.84
2023-01-22T21:02:18.785Z,103242.22
2023-01-22T21:05:41.421Z,103238.75
2023-01-22T21:09:03.680Z,103243.97
2023-01-22T21:12:27.289Z,103248.44
2023-01-22T21:15:49.078Z,103255.38
2023-01-22T21:19:15.805Z,103260.66
2023-01-22T21:22:37.271Z,103264.13
2023-01-22T21:26:04.770Z,103254.53
2023-01-22T21:29:27.886Z,103258.91
2023-01-22T21:32:51.639Z,103265.03
2023-01-22T21:36:16.377Z,103263.28
2023-01-22T21:39:44.928Z,103263.28
2023-01-22T21:43:24.058Z,103264.19
2023-01-22T21:46:48.153Z,103265.03
2023-01-22T21:50:11.383Z,103264.13
2023-01-22T21:53:33.071Z,103273.78
2023-01-22T21:56:54.671Z,103274.72
2023-01-22T22:00:17.151Z,103274.66
2023-01-22T22:03:40.583Z,103276.41
2023-01-22T22:07:02.250Z,103275.53
2023-01-22T22:10:23.645Z,103277.31
2023-01-22T22:13:45.523Z,103278.16
2023-01-22T22:17:08.342Z,103283.41
2023-01-22T22:20:33.643Z,103283.38
2023-01-22T22:23:57.536Z,103280.75
2023-01-22T22:27:19.147Z,103283.41
2023-01-22T22:30:40.941Z,103297.44
2023-01-22T22:34:02.738Z,103288.66
2023-01-22T22:37:25.703Z,103292.16
2023-01-22T22:40:58.933Z,103296.53
2023-01-22T22:44:20.510Z,103300.06
2023-01-22T22:47:42.308Z,103299.16
2023-01-22T22:51:11.410Z,103300.91
2023-01-22T22:54:34.481Z,103307.06
2023-01-22T22:57:56.291Z,103301.81
2023-01-22T23:01:19.306Z,103304.44
2023-01-22T23:04:40.854Z,103307.03
2023-01-22T23:08:02.683Z,103312.28
2023-01-22T23:11:28.214Z,103317.56
2023-01-22T23:14:49.655Z,103320.19
2023-01-22T23:18:11.541Z,103320.19
2023-01-22T23:21:35.057Z,103333.41
2023-01-22T23:24:56.655Z,103334.25
2023-01-22T23:28:19.362Z,103339.50
2023-01-22T23:31:41.859Z,103349.16
2023-01-22T23:35:03.732Z,103356.16
2023-01-22T23:38:25.419Z,103364.94
2023-01-22T23:41:47.404Z,103380.75
2023-01-22T23:45:11.951Z,103378.06
2023-01-22T23:48:33.696Z,103371.06
2023-01-22T23:51:55.636Z,103372.81
2023-01-22T23:55:18.085Z,103376.34
2023-01-22T23:58:40.640Z,103378.13
